createdAt,value
2023-05-25T00:01:56.026Z,4.00
2023-05-25T00:04:48.530Z,4.03
2023-05-25T00:07:34.232Z,4.30
2023-05-25T00:10:19.889Z,4.00
2023-05-25T00:13:05.603Z,3.13
2023-05-25T00:15:51.193Z,3.83
2023-05-25T00:18:38.038Z,4.27
2023-05-25T00:21:25.755Z,4.97
2023-05-25T00:24:11.588Z,3.60
2023-05-25T00:26:58.107Z,3.93
2023-05-25T00:29:43.297Z,4.17
2023-05-25T00:32:28.566Z,3.43
2023-05-25T00:35:14.055Z,3.67
2023-05-25T00:37:59.897Z,3.63
2023-05-25T00:40:49.009Z,3.20
2023-05-25T00:43:35.311Z,3.30
2023-05-25T00:46:21.145Z,3.37
2023-05-25T00:49:06.854Z,3.73
2023-05-25T00:51:53.191Z,3.53
2023-05-25T00:54:39.303Z,3.40
2023-05-25T00:57:28.820Z,3.80
2023-05-25T01:00:17.614Z,2.80
2023-05-25T01:03:11.818Z,3.70
2023-05-25T01:05:58.115Z,3.23
2023-05-25T01:08:51.077Z,3.57
2023-05-25T01:11:40.113Z,3.53
2023-05-25T01:14:26.777Z,3.10
2023-05-25T01:17:12.578Z,3.30
2023-05-25T01:20:10.325Z,2.70
2023-05-25T01:23:13.844Z,3.30
2023-05-25T01:26:02.677Z,3.70
2023-05-25T01:28:52.906Z,2.90
2023-05-25T01:31:40.512Z,3.33
2023-05-25T01:34:26.868Z,3.10
2023-05-25T01:37:13.570Z,2.80
2023-05-25T01:39:59.397Z,2.50
2023-05-25T01:42:44.936Z,3.10
2023-05-25T01:45:35.360Z,3.00
2023-05-25T01:48:40.805Z,3.27
2023-05-25T01:52:15.772Z,4.13
2023-05-25T01:55:10.617Z,3.80
2023-05-25T01:57:59.123Z,4.23
2023-05-25T02:00:47.021Z,3.27
2023-05-25T02:03:32.856Z,4.30
2023-05-25T02:06:18.139Z,3.90
2023-05-25T02:09:03.611Z,3.50
2023-05-25T02:11:49.598Z,4.37
2023-05-25T02:14:35.447Z,3.37
2023-05-25T02:17:20.753Z,3.60
2023-05-25T02:20:08.335Z,4.23
2023-05-25T02:22:54.232Z,4.23
2023-05-25T02:25:39.513Z,4.13
2023-05-25T02:28:25.151Z,3.43
2023-05-25T02:31:10.510Z,4.30
2023-05-25T02:33:56.293Z,4.33
2023-05-25T02:36:43.501Z,5.33
2023-05-25T02:39:29.036Z,4.47
2023-05-25T02:42:14.690Z,4.17
2023-05-25T02:45:02.923Z,4.50
2023-05-25T02:47:48.185Z,4.60
2023-05-25T02:50:35.831Z,4.40
2023-05-25T02:53:21.264Z,4.03
2023-05-25T02:56:06.782Z,4.40
2023-05-25T02:58:52.127Z,4.03
2023-05-25T03:01:40.793Z,3.87
2023-05-25T03:04:26.838Z,3.97
2023-05-25T03:07:13.934Z,3.60
2023-05-25T03:10:00.002Z,4.10
2023-05-25T03:12:45.332Z,3.73
2023-05-25T03:15:30.660Z,4.90
2023-05-25T03:18:16.201Z,3.73
2023-05-25T03:21:01.538Z,3.87
2023-05-25T03:23:47.270Z,4.63
2023-05-25T03:26:33.414Z,4.60
2023-05-25T03:29:18.950Z,3.70
2023-05-25T03:32:05.008Z,4.00
2023-05-25T03:34:52.908Z,5.17
2023-05-25T03:37:38.862Z,4.10
2023-05-25T03:40:24.445Z,4.10
2023-05-25T03:43:09.838Z,4.00
2023-05-25T03:45:55.302Z,4.10
2023-05-25T03:48:41.355Z,3.70
2023-05-25T03:51:28.034Z,3.90
2023-05-25T03:54:16.572Z,4.43
2023-05-25T03:57:04.060Z,3.90
2023-05-25T03:59:52.142Z,3.47
2023-05-25T04:02:37.936Z,4.73
2023-05-25T04:05:23.730Z,4.80
2023-05-25T04:08:09.965Z,3.77
2023-05-25T04:10:58.214Z,5.13
2023-05-25T04:13:43.643Z,4.20
2023-05-25T04:16:32.266Z,4.30
2023-05-25T04:19:17.988Z,4.80
2023-05-25T04:22:03.533Z,4.60
2023-05-25T04:24:49.114Z,4.83
2023-05-25T04:27:34.670Z,4.77
2023-05-25T04:30:19.927Z,4.60
2023-05-25T04:33:11.608Z,4.50
2023-05-25T04:35:58.710Z,5.17
2023-05-25T04:38:48.154Z,4.43
2023-05-25T04:41:33.961Z,5.60
2023-05-25T04:44:20.125Z,4.60
2023-05-25T04:47:08.070Z,5.67
2023-05-25T04:49:53.807Z,5.70
2023-05-25T04:52:40.206Z,5.37
2023-05-25T04:55:25.633Z,5.53
2023-05-25T04:58:14.651Z,4.83
2023-05-25T05:01:02.998Z,6.00
2023-05-25T05:03:48.510Z,6.10
2023-05-25T05:06:34.734Z,5.87
2023-05-25T05:09:23.073Z,4.73
2023-05-25T05:12:12.747Z,6.00
2023-05-25T05:14:58.619Z,6.77
2023-05-25T05:17:44.102Z,6.27
2023-05-25T05:20:29.992Z,5.90
2023-05-25T05:23:15.776Z,5.30
2023-05-25T05:26:01.488Z,6.03
2023-05-25T05:28:47.417Z,5.83
2023-05-25T05:31:32.795Z,4.90
2023-05-25T05:34:18.322Z,6.03
2023-05-25T05:37:03.995Z,5.47
2023-05-25T05:39:53.267Z,7.23
2023-05-25T05:42:38.874Z,5.63
2023-05-25T05:45:25.085Z,5.80
2023-05-25T05:48:10.857Z,6.10
2023-05-25T05:50:56.685Z,5.63
2023-05-25T05:53:44.233Z,5.73
2023-05-25T05:56:29.493Z,5.63
2023-05-25T05:59:19.853Z,5.50
2023-05-25T06:02:08.115Z,5.80
2023-05-25T06:04:55.703Z,6.77
2023-05-25T06:07:41.320Z,5.90
2023-05-25T06:10:27.160Z,6.10
2023-05-25T06:13:12.681Z,6.17
2023-05-25T06:15:58.103Z,5.83
2023-05-25T06:18:43.626Z,6.77
2023-05-25T06:21:29.214Z,6.60
2023-05-25T06:24:15.925Z,5.90
2023-05-25T06:27:03.251Z,5.13
2023-05-25T06:29:53.049Z,5.13
2023-05-25T06:32:38.733Z,4.70
2023-05-25T06:35:24.085Z,4.67
2023-05-25T06:38:09.368Z,4.90
2023-05-25T06:40:57.128Z,4.43
2023-05-25T06:43:42.641Z,4.73
2023-05-25T06:46:31.846Z,3.90
2023-05-25T06:49:17.547Z,5.10
2023-05-25T06:52:04.980Z,5.20
2023-05-25T06:54:50.326Z,4.40
2023-05-25T06:57:38.574Z,4.83
2023-05-25T07:00:26.741Z,5.03
2023-05-25T07:03:12.204Z,3.63
2023-05-25T07:06:03.650Z,3.60
2023-05-25T07:08:49.127Z,4.50
2023-05-25T07:11:35.414Z,3.17
2023-05-25T07:14:20.998Z,4.00
2023-05-25T07:17:07.091Z,3.03
2023-05-25T07:19:53.075Z,4.20
2023-05-25T07:22:38.856Z,3.77
2023-05-25T07:25:28.145Z,2.97
2023-05-25T07:28:13.694Z,3.87
2023-05-25T07:30:59.560Z,3.20
2023-05-25T07:33:45.410Z,3.33
2023-05-25T07:36:34.280Z,3.10
2023-05-25T07:39:22.085Z,2.97
2023-05-25T07:42:08.042Z,2.17
2023-05-25T07:44:53.668Z,3.03
2023-05-25T07:47:39.410Z,2.90
2023-05-25T07:50:25.287Z,2.53
2023-05-25T07:53:10.603Z,2.40
2023-05-25T07:55:56.144Z,3.00
2023-05-25T07:58:41.502Z,2.50
2023-05-25T08:01:27.755Z,2.17
2023-05-25T08:04:16.243Z,1.80
2023-05-25T08:07:01.634Z,2.50
2023-05-25T08:09:47.637Z,2.00
2023-05-25T08:12:46.824Z,3.03
2023-05-25T08:15:33.175Z,2.20
2023-05-25T08:18:19.398Z,2.40
2023-05-25T08:21:05.321Z,2.13
2023-05-25T08:23:51.663Z,3.10
2023-05-25T08:26:54.405Z,2.70
2023-05-25T08:29:44.102Z,2.97
2023-05-25T08:32:29.834Z,3.43
2023-05-25T08:35:15.463Z,2.37
2023-05-25T08:38:00.651Z,3.27
2023-05-25T08:40:47.060Z,3.53
2023-05-25T08:43:38.164Z,2.80
2023-05-25T08:46:33.188Z,2.20
2023-05-25T08:49:19.017Z,2.23
2023-05-25T08:52:06.078Z,2.27
2023-05-25T08:54:54.539Z,2.80
2023-05-25T08:57:49.870Z,2.00
2023-05-25T09:00:40.282Z,2.10
2023-05-25T09:03:26.884Z,2.40
2023-05-25T09:06:12.852Z,2.80
2023-05-25T09:08:59.105Z,2.80
2023-05-25T09:11:49.916Z,2.93
2023-05-25T09:14:37.794Z,3.10
2023-05-25T09:17:23.248Z,2.50
2023-05-25T09:20:13.747Z,3.00
2023-05-25T09:23:03.211Z,2.50
2023-05-25T09:25:50.780Z,2.13
2023-05-25T09:28:45.015Z,2.03
2023-05-25T09:31:31.637Z,2.53
2023-05-25T09:34:20.548Z,2.63
2023-05-25T09:37:17.154Z,2.37
2023-05-25T09:40:06.523Z,3.20
2023-05-25T09:42:54.501Z,2.30
2023-05-25T09:45:40.317Z,2.83
2023-05-25T09:48:26.274Z,3.00
2023-05-25T09:51:14.542Z,1.90
2023-05-25T09:54:01.357Z,2.90
2023-05-25T09:56:46.982Z,2.93
2023-05-25T09:59:32.634Z,2.87
2023-05-25T10:02:18.468Z,3.00
2023-05-25T10:05:04.252Z,3.70
2023-05-25T10:07:53.216Z,2.83
2023-05-25T10:10:44.669Z,3.67
2023-05-25T10:13:34.141Z,2.80
2023-05-25T10:16:28.016Z,2.97
2023-05-25T10:19:21.890Z,3.50
2023-05-25T10:22:19.418Z,2.07
2023-05-25T10:25:19.956Z,2.93
2023-05-25T10:28:18.717Z,2.53
2023-05-25T10:31:05.567Z,3.00
2023-05-25T10:33:52.620Z,2.80
2023-05-25T10:36:41.636Z,2.70
2023-05-25T10:39:30.899Z,3.37
2023-05-25T10:42:18.960Z,3.30
2023-05-25T10:45:09.294Z,3.10
2023-05-25T10:47:54.861Z,3.03
2023-05-25T10:50:40.735Z,3.43
2023-05-25T10:53:26.160Z,3.17
2023-05-25T10:56:12.884Z,2.83
2023-05-25T10:58:58.686Z,2.80
2023-05-25T11:01:51.718Z,2.60
2023-05-25T11:04:39.987Z,2.70
2023-05-25T11:07:26.031Z,4.07
2023-05-25T11:10:14.452Z,2.83
2023-05-25T11:13:31.722Z,3.20
2023-05-25T11:16:27.868Z,3.47
2023-05-25T11:19:17.700Z,2.87
2023-05-25T11:22:18.025Z,3.07
2023-05-25T11:25:39.942Z,2.77
2023-05-25T11:28:28.873Z,3.30
2023-05-25T11:31:14.819Z,2.90
2023-05-25T11:34:05.223Z,2.63
2023-05-25T11:37:06.458Z,2.97
2023-05-25T11:39:53.429Z,3.10
2023-05-25T11:42:42.805Z,2.90
2023-05-25T11:45:34.734Z,2.60
2023-05-25T11:48:20.229Z,3.33
2023-05-25T11:51:06.755Z,3.33
2023-05-25T11:53:52.536Z,2.93
2023-05-25T11:56:38.285Z,3.20
2023-05-25T11:59:32.492Z,3.00
2023-05-25T12:02:19.239Z,2.13
2023-05-25T12:05:08.691Z,3.57
2023-05-25T12:07:56.757Z,3.03
2023-05-25T12:10:52.302Z,2.90
2023-05-25T12:13:41.159Z,2.67
2023-05-25T12:16:27.054Z,3.37
2023-05-25T12:19:15.771Z,2.57
2023-05-25T12:22:02.553Z,3.07
2023-05-25T12:24:50.228Z,3.17
2023-05-25T12:27:37.959Z,2.80
2023-05-25T12:30:28.629Z,3.10
2023-05-25T12:33:15.678Z,3.20
2023-05-25T12:36:01.228Z,3.97
2023-05-25T12:38:59.017Z,3.00
2023-05-25T12:41:54.354Z,2.73
2023-05-25T12:44:41.514Z,4.00
2023-05-25T12:47:28.726Z,3.33
2023-05-25T12:50:17.978Z,2.93
2023-05-25T12:53:04.388Z,4.63
2023-05-25T12:55:49.945Z,3.57
2023-05-25T12:58:36.039Z,3.30
2023-05-25T13:01:22.294Z,2.60
2023-05-25T13:04:07.885Z,3.53
2023-05-25T13:06:54.154Z,4.00
2023-05-25T13:09:40.027Z,4.00
2023-05-25T13:12:26.028Z,2.90
2023-05-25T13:15:17.555Z,3.07
2023-05-25T13:18:03.669Z,3.33
2023-05-25T13:20:51.778Z,2.67
2023-05-25T13:23:38.910Z,2.60
2023-05-25T13:26:27.288Z,2.30
2023-05-25T13:29:12.804Z,3.40
2023-05-25T13:31:58.096Z,3.13
2023-05-25T13:34:43.707Z,2.80
2023-05-25T13:37:29.174Z,2.87
2023-05-25T13:40:19.940Z,2.43
2023-05-25T13:43:05.424Z,2.37
2023-05-25T13:45:51.789Z,2.33
2023-05-25T13:48:37.241Z,1.70
2023-05-25T13:51:25.300Z,2.30
2023-05-25T13:54:12.962Z,1.80
2023-05-25T13:56:58.436Z,2.05
2023-05-25T13:59:44.380Z,2.03
2023-05-25T14:02:34.110Z,2.33
2023-05-25T14:05:20.280Z,2.63
2023-05-25T14:08:07.893Z,2.53
2023-05-25T14:10:53.455Z,2.57
2023-05-25T14:13:42.239Z,2.47
2023-05-25T14:16:28.617Z,2.43
2023-05-25T14:19:16.689Z,1.90
2023-05-25T14:22:12.473Z,2.43
2023-05-25T14:25:00.383Z,2.20
2023-05-25T14:27:46.869Z,2.30
2023-05-25T14:30:32.926Z,2.70
2023-05-25T14:33:18.806Z,1.77
2023-05-25T14:36:06.691Z,1.98
2023-05-25T14:38:52.187Z,2.20
2023-05-25T14:41:37.823Z,2.15
2023-05-25T14:44:23.433Z,2.70
2023-05-25T14:47:08.845Z,3.40
2023-05-25T14:49:54.133Z,2.93
2023-05-25T14:52:39.871Z,2.93
2023-05-25T14:55:25.734Z,2.97
2023-05-25T14:58:11.419Z,3.30
2023-05-25T15:00:56.963Z,2.83
2023-05-25T15:03:44.968Z,3.17
2023-05-25T15:06:32.051Z,3.93
2023-05-25T15:09:20.064Z,3.00
2023-05-25T15:12:06.505Z,2.60
2023-05-25T15:14:53.781Z,3.23
2023-05-25T15:17:41.356Z,2.90
2023-05-25T15:20:29.040Z,2.60
2023-05-25T15:23:14.873Z,2.57
2023-05-25T15:26:04.623Z,3.20
2023-05-25T15:28:50.418Z,2.93
2023-05-25T15:31:36.211Z,3.27
2023-05-25T15:34:21.959Z,3.30
2023-05-25T15:37:07.750Z,3.67
2023-05-25T15:39:53.298Z,3.77
2023-05-25T15:42:40.726Z,2.90
2023-05-25T15:45:26.513Z,2.73
2023-05-25T15:48:11.789Z,2.53
2023-05-25T15:50:57.329Z,2.50
2023-05-25T15:53:43.221Z,2.80
2023-05-25T15:56:28.552Z,2.83
2023-05-25T15:59:16.700Z,3.43
2023-05-25T16:02:02.304Z,3.03
2023-05-25T16:04:48.123Z,3.07
2023-05-25T16:07:33.958Z,2.80
2023-05-25T16:10:21.701Z,2.70
2023-05-25T16:13:07.587Z,2.50
2023-05-25T16:15:53.515Z,2.40
2023-05-25T16:18:39.199Z,3.63
2023-05-25T16:21:24.995Z,2.00
2023-05-25T16:24:10.232Z,2.60
2023-05-25T16:26:57.598Z,2.70
2023-05-25T16:29:43.505Z,2.63
2023-05-25T16:32:29.569Z,2.83
2023-05-25T16:35:17.776Z,3.00
2023-05-25T16:38:04.099Z,2.47
2023-05-25T16:40:51.868Z,3.50
2023-05-25T16:43:37.620Z,2.60
2023-05-25T16:46:25.203Z,2.63
2023-05-25T16:49:10.792Z,2.50
2023-05-25T16:51:56.516Z,2.60
2023-05-25T16:54:45.141Z,3.10
2023-05-25T16:57:31.047Z,2.77
2023-05-25T17:00:16.791Z,2.37
2023-05-25T17:03:02.329Z,2.90
2023-05-25T17:05:47.794Z,2.27
2023-05-25T17:08:34.060Z,2.37
2023-05-25T17:11:19.582Z,2.63
2023-05-25T17:14:05.056Z,3.43
2023-05-25T17:16:50.753Z,3.37
2023-05-25T17:19:36.565Z,3.27
2023-05-25T17:22:22.445Z,3.30
2023-05-25T17:25:09.178Z,2.80
2023-05-25T17:27:56.850Z,2.50
2023-05-25T17:30:43.306Z,2.73
2023-05-25T17:33:29.202Z,3.40
2023-05-25T17:36:14.975Z,2.80
2023-05-25T17:39:02.694Z,3.30
2023-05-25T17:41:49.680Z,3.17
2023-05-25T17:44:40.134Z,3.40
2023-05-25T17:47:27.300Z,3.30
2023-05-25T17:50:15.371Z,3.10
2023-05-25T17:53:01.702Z,3.07
2023-05-25T17:55:49.720Z,3.17
2023-05-25T17:58:35.647Z,2.97
2023-05-25T18:01:21.219Z,3.03
2023-05-25T18:04:06.850Z,2.80
2023-05-25T18:06:52.747Z,2.40
2023-05-25T18:09:40.696Z,2.60
2023-05-25T18:12:26.255Z,2.87
2023-05-25T18:15:12.834Z,3.07
2023-05-25T18:17:58.422Z,2.77
2023-05-25T18:20:44.877Z,3.00
2023-05-25T18:23:30.598Z,2.93
2023-05-25T18:26:18.540Z,3.60
2023-05-25T18:29:04.406Z,2.87
2023-05-25T18:31:52.498Z,3.00
2023-05-25T18:34:37.891Z,2.80
2023-05-25T18:37:24.502Z,2.47
2023-05-25T18:40:13.108Z,3.20
2023-05-25T18:43:00.950Z,2.73
2023-05-25T18:45:46.461Z,2.40
2023-05-25T18:48:32.441Z,2.80
2023-05-25T18:51:23.153Z,3.10
2023-05-25T18:54:10.539Z,2.90
2023-05-25T18:56:56.181Z,2.93
2023-05-25T18:59:42.037Z,2.73
2023-05-25T19:02:30.477Z,2.10
2023-05-25T19:05:16.085Z,3.00
2023-05-25T19:08:01.840Z,2.90
2023-05-25T19:10:47.289Z,2.70
2023-05-25T19:13:32.921Z,2.50
2023-05-25T19:16:21.069Z,2.90
2023-05-25T19:19:06.720Z,2.40
2023-05-25T19:21:53.814Z,3.23
2023-05-25T19:24:42.639Z,2.80
2023-05-25T19:27:29.823Z,2.97
2023-05-25T19:30:18.233Z,2.77
2023-05-25T19:33:03.548Z,2.70
2023-05-25T19:35:49.220Z,2.77
2023-05-25T19:38:41.336Z,2.77
2023-05-25T19:41:28.096Z,2.50
2023-05-25T19:44:13.911Z,2.90
2023-05-25T19:47:02.426Z,2.47
2023-05-25T19:49:48.245Z,2.77
2023-05-25T19:52:34.641Z,2.60
2023-05-25T19:55:23.088Z,3.10
2023-05-25T19:58:09.370Z,2.87
2023-05-25T20:00:54.807Z,2.70
2023-05-25T20:03:40.264Z,3.43
2023-05-25T20:06:26.005Z,3.00
2023-05-25T20:09:14.379Z,2.73
2023-05-25T20:12:00.793Z,2.83
2023-05-25T20:14:46.416Z,2.67
2023-05-25T20:17:32.828Z,2.80
2023-05-25T20:20:18.710Z,2.50
2023-05-25T20:23:07.273Z,2.63
2023-05-25T20:25:52.759Z,2.40
2023-05-25T20:28:38.583Z,2.83
2023-05-25T20:31:27.612Z,2.83
2023-05-25T20:34:13.605Z,2.47
2023-05-25T20:36:59.032Z,2.70
2023-05-25T20:39:44.563Z,2.30
2023-05-25T20:42:32.204Z,2.03
2023-05-25T20:45:20.342Z,2.30
2023-05-25T20:48:08.351Z,3.03
2023-05-25T20:50:58.589Z,1.97
2023-05-25T20:53:44.455Z,2.13
2023-05-25T20:56:35.734Z,2.23
2023-05-25T20:59:23.517Z,2.47
2023-05-25T21:02:19.099Z,2.40
2023-05-25T21:05:07.061Z,3.00
2023-05-25T21:07:59.876Z,2.03
2023-05-25T21:10:52.097Z,2.80
2023-05-25T21:13:42.418Z,2.83
2023-05-25T21:16:28.977Z,2.73
2023-05-25T21:19:17.878Z,2.50
2023-05-25T21:22:03.867Z,2.83
2023-05-25T21:24:50.124Z,2.53
2023-05-25T21:27:36.046Z,2.60
2023-05-25T21:30:24.280Z,2.57
2023-05-25T21:33:09.972Z,3.23
2023-05-25T21:35:55.434Z,2.63
2023-05-25T21:38:43.499Z,3.07
2023-05-25T21:41:31.632Z,3.07
2023-05-25T21:44:19.337Z,1.97
2023-05-25T21:47:05.127Z,2.60
2023-05-25T21:49:52.949Z,2.90
2023-05-25T21:52:41.569Z,3.23
2023-05-25T21:55:27.265Z,2.50
2023-05-25T21:58:13.825Z,3.10
2023-05-25T22:00:59.677Z,3.10
2023-05-25T22:03:45.085Z,2.90
2023-05-25T22:06:30.910Z,2.57
2023-05-25T22:09:18.793Z,2.80
2023-05-25T22:12:05.056Z,2.30
2023-05-25T22:14:50.525Z,2.63
2023-05-25T22:17:36.140Z,3.10
2023-05-25T22:20:24.078Z,2.87
2023-05-25T22:23:12.381Z,2.60
2023-05-25T22:25:57.861Z,3.13
2023-05-25T22:28:43.198Z,3.03
2023-05-25T22:31:28.925Z,2.47
2023-05-25T22:34:14.711Z,3.07
2023-05-25T22:37:03.903Z,5.03
2023-05-25T22:39:49.765Z,3.50
2023-05-25T22:42:35.416Z,3.60
2023-05-25T22:45:21.522Z,3.60
2023-05-25T22:48:08.183Z,2.87
2023-05-25T22:50:53.917Z,2.90
2023-05-25T22:53:40.365Z,2.93
2023-05-25T22:56:26.335Z,3.30
2023-05-25T22:59:13.025Z,3.30
2023-05-25T23:01:58.656Z,3.87
2023-05-25T23:04:46.953Z,3.40
2023-05-25T23:07:34.764Z,2.80
2023-05-25T23:10:20.695Z,2.90
2023-05-25T23:13:10.750Z,2.87
2023-05-25T23:15:57.423Z,3.73
2023-05-25T23:18:43.474Z,3.10
2023-05-25T23:21:31.546Z,3.17
2023-05-25T23:24:22.163Z,2.80
2023-05-25T23:27:10.105Z,2.63
2023-05-25T23:29:55.798Z,2.63
2023-05-25T23:32:41.274Z,3.03
2023-05-25T23:35:27.697Z,3.40
2023-05-25T23:38:13.050Z,3.23
2023-05-25T23:40:58.648Z,3.87
2023-05-25T23:43:44.052Z,3.70
2023-05-25T23:46:31.785Z,4.07
2023-05-25T23:49:17.417Z,3.17
2023-05-25T23:52:03.184Z,3.17
2023-05-25T23:54:50.920Z,2.87
2023-05-25T23:57:36.662Z,3.50
